Midnight Dream — YJWE4 — position and weather

sailwx.info

Track history (hours):
 
Tides and Currents Weather Stations Pressure Air Temp Water Temp Dewpoint Dewpoint Depression Visibility Wind Speed Wind Dir Waves Ship Positions

Midnight Dream

Last reported at 2018-Jan-24 10:59 UTC. Time now 2018-Jan-24 11:14 UTC.
Position N 17°35' W 062°59'.

Length 90 m; draft 14.5 m.

Type: Cargo ship. MMSI: 577368000.

Date/timePositionNaut miles runAvg speedWind from/ knotsBaromVisibWave heightAir tempDewpointWater temp
2018-Jan-24 10:59N 17°35' W 062°59'1412.3
2018-Jan-24 09:50N 17°29' W 062°45'1212.4
2018-Jan-24 08:52N 17°25' W 062°34'412.5
2018-Jan-24 08:30N 17°23' W 062°29'612.3
2018-Jan-24 08:00N 17°21' W 062°23'612.2
2018-Jan-24 07:31N 17°18' W 062°17'612.0
2018-Jan-24 07:00N 17°16' W 062°12'612.0
2018-Jan-24 06:30N 17°13' W 062°06'612.1
2018-Jan-24 05:59N 17°11' W 061°60'612.2
2018-Jan-24 05:30N 17°08' W 061°54'3 6.0
2018-Jan-24 05:00N 17°07' W 061°51'0 0.0
2018-Jan-24 04:29N 17°07' W 061°51'0 0.0
2018-Jan-24 04:01N 17°07' W 061°51'0 0.0
2018-Jan-24 03:30N 17°07' W 061°51'0 0.0
2018-Jan-24 03:00N 17°07' W 061°51'0 0.0
2018-Jan-24 02:30N 17°07' W 061°51'0 0.0
2018-Jan-24 02:00N 17°07' W 061°51'0 0.1
2018-Jan-24 01:30N 17°07' W 061°51'4 8.7
2018-Jan-24 01:01N 17°07' W 061°56'612.0
2018-Jan-24 00:31N 17°03' W 062°00'611.8
2018-Jan-24 00:00N 16°59' W 062°04'611.7
2018-Jan-23 23:30N 16°54' W 062°09'611.6
2018-Jan-23 23:00N 16°50' W 062°13'2 3.3
2018-Jan-23 22:30N 16°48' W 062°12'0 0.0
2018-Jan-23 21:51N 16°48' W 062°12'0 0.0
2018-Jan-23 21:30N 16°48' W 062°12'2 4.8
2018-Jan-23 21:00N 16°49' W 062°15'611.7
2018-Jan-23 20:28N 16°53' W 062°20'611.9
2018-Jan-23 19:59N 16°56' W 062°25'17 5.6
2018-Jan-23 17:02N 17°07' W 062°38'111.7
2018-Jan-23 16:58N 17°07' W 062°39'611.9
2018-Jan-23 16:26N 17°12' W 062°44'511.4
2018-Jan-23 16:00N 17°15' W 062°48'611.1
2018-Jan-23 15:26N 17°19' W 062°53'511.4
2018-Jan-23 14:59N 17°22' W 062°57'610.9
2018-Jan-23 14:24N 17°26' W 063°02'511.4
2018-Jan-23 13:57N 17°30' W 063°06'511.2
2018-Jan-23 13:29N 17°33' W 063°11'711.3
2018-Jan-23 12:52N 17°37' W 063°16'411.6
2018-Jan-23 12:31N 17°41' W 063°18'611.1
2018-Jan-23 11:59N 17°44' W 063°24'611.4
2018-Jan-23 11:30N 17°46' W 063°29'611.3
2018-Jan-23 10:59N 17°48' W 063°35'  
2018-Jan-18 21:26N 17°48' W 063°28'511.6
2018-Jan-18 20:59N 17°46' W 063°23'611.5
2018-Jan-18 20:30N 17°43' W 063°18'611.5
2018-Jan-18 19:57N 17°40' W 063°12'511.2
2018-Jan-18 19:28N 17°36' W 063°08'1111.0
2018-Jan-18 18:28N 17°29' W 062°60'0 0.0
2018-Jan-18 11:23N 17°29' W 062°60'511.0
2018-Jan-18 10:55N 17°32' W 063°04'611.6
2018-Jan-18 10:23N 17°37' W 063°08'611.4
2018-Jan-18 09:51N 17°41' W 063°13'511.6
2018-Jan-18 09:26N 17°43' W 063°17'511.6
2018-Jan-18 09:00N 17°46' W 063°22'611.9
2018-Jan-18 08:30N 17°49' W 063°27'611.8
2018-Jan-18 07:58N 17°51' W 063°33'  
Track history (hours):
 
Tides and Currents Weather Stations Pressure Air Temp Water Temp Dewpoint Dewpoint Depression Visibility Wind Speed Wind Dir Waves Ship Positions

Midnight Dream

Last reported at 2018-Jan-24 10:59 UTC. Time now 2018-Jan-24 11:14 UTC.
Position N 17°35' W 062°59'.

Length 90 m; draft 14.5 m.

Type: Cargo ship. MMSI: 577368000.

Date/timePositionNaut miles runAvg speedWind from/ knotsBaromVisibWave heightAir tempDewpointWater temp
2018-Jan-24 10:59N 17°35' W 062°59'1412.3
2018-Jan-24 09:50N 17°29' W 062°45'1212.4
2018-Jan-24 08:52N 17°25' W 062°34'412.5
2018-Jan-24 08:30N 17°23' W 062°29'612.3
2018-Jan-24 08:00N 17°21' W 062°23'612.2
2018-Jan-24 07:31N 17°18' W 062°17'612.0
2018-Jan-24 07:00N 17°16' W 062°12'612.0
2018-Jan-24 06:30N 17°13' W 062°06'612.1
2018-Jan-24 05:59N 17°11' W 061°60'612.2
2018-Jan-24 05:30N 17°08' W 061°54'3 6.0
2018-Jan-24 05:00N 17°07' W 061°51'0 0.0
2018-Jan-24 04:29N 17°07' W 061°51'0 0.0
2018-Jan-24 04:01N 17°07' W 061°51'0 0.0
2018-Jan-24 03:30N 17°07' W 061°51'0 0.0
2018-Jan-24 03:00N 17°07' W 061°51'0 0.0
2018-Jan-24 02:30N 17°07' W 061°51'0 0.0
2018-Jan-24 02:00N 17°07' W 061°51'0 0.1
2018-Jan-24 01:30N 17°07' W 061°51'4 8.7
2018-Jan-24 01:01N 17°07' W 061°56'612.0
2018-Jan-24 00:31N 17°03' W 062°00'611.8
2018-Jan-24 00:00N 16°59' W 062°04'611.7
2018-Jan-23 23:30N 16°54' W 062°09'611.6
2018-Jan-23 23:00N 16°50' W 062°13'2 3.3
2018-Jan-23 22:30N 16°48' W 062°12'0 0.0
2018-Jan-23 21:51N 16°48' W 062°12'0 0.0
2018-Jan-23 21:30N 16°48' W 062°12'2 4.8
2018-Jan-23 21:00N 16°49' W 062°15'611.7
2018-Jan-23 20:28N 16°53' W 062°20'611.9
2018-Jan-23 19:59N 16°56' W 062°25'17 5.6
2018-Jan-23 17:02N 17°07' W 062°38'111.7
2018-Jan-23 16:58N 17°07' W 062°39'611.9
2018-Jan-23 16:26N 17°12' W 062°44'511.4
2018-Jan-23 16:00N 17°15' W 062°48'611.1
2018-Jan-23 15:26N 17°19' W 062°53'511.4
2018-Jan-23 14:59N 17°22' W 062°57'610.9
2018-Jan-23 14:24N 17°26' W 063°02'511.4
2018-Jan-23 13:57N 17°30' W 063°06'511.2
2018-Jan-23 13:29N 17°33' W 063°11'711.3
2018-Jan-23 12:52N 17°37' W 063°16'411.6
2018-Jan-23 12:31N 17°41' W 063°18'611.1
2018-Jan-23 11:59N 17°44' W 063°24'611.4
2018-Jan-23 11:30N 17°46' W 063°29'611.3
2018-Jan-23 10:59N 17°48' W 063°35'  
2018-Jan-18 21:26N 17°48' W 063°28'511.6
2018-Jan-18 20:59N 17°46' W 063°23'611.5
2018-Jan-18 20:30N 17°43' W 063°18'611.5
2018-Jan-18 19:57N 17°40' W 063°12'511.2
2018-Jan-18 19:28N 17°36' W 063°08'1111.0
2018-Jan-18 18:28N 17°29' W 062°60'0 0.0
2018-Jan-18 11:23N 17°29' W 062°60'511.0
2018-Jan-18 10:55N 17°32' W 063°04'611.6
2018-Jan-18 10:23N 17°37' W 063°08'611.4
2018-Jan-18 09:51N 17°41' W 063°13'511.6
2018-Jan-18 09:26N 17°43' W 063°17'511.6
2018-Jan-18 09:00N 17°46' W 063°22'611.9
2018-Jan-18 08:30N 17°49' W 063°27'611.8
2018-Jan-18 07:58N 17°51' W 063°33'  

Dump ship's entire track history